createdAt,value
2017-02-04T00:00:05.128Z,994.05
2017-02-04T00:00:31.345Z,994.06
2017-02-04T00:00:57.474Z,994.05
2017-02-04T00:01:23.659Z,994
2017-02-04T00:01:49.845Z,993.98
2017-02-04T00:02:16.012Z,993.93
2017-02-04T00:02:42.145Z,993.98
2017-02-04T00:03:08.318Z,993.94
2017-02-04T00:03:34.491Z,993.92
2017-02-04T00:04:00.642Z,993.92
2017-02-04T00:04:26.843Z,993.92
2017-02-04T00:04:53.042Z,993.96
2017-02-04T00:05:19.716Z,993.94
2017-02-04T00:05:45.998Z,993.91
2017-02-04T00:06:12.172Z,993.92
2017-02-04T00:06:38.301Z,993.91
2017-02-04T00:07:04.465Z,993.91
2017-02-04T00:07:30.909Z,993.9
2017-02-04T00:07:57.079Z,993.89
2017-02-04T00:08:23.244Z,993.9
2017-02-04T00:08:49.348Z,993.91
2017-02-04T00:09:15.825Z,993.9
2017-02-04T00:09:42.039Z,993.86
2017-02-04T00:10:08.197Z,993.92
2017-02-04T00:10:34.314Z,993.88
2017-02-04T00:11:00.487Z,993.85
2017-02-04T00:11:26.635Z,993.83
2017-02-04T00:11:52.754Z,993.84
2017-02-04T00:12:18.902Z,993.85
2017-02-04T00:12:45.079Z,993.81
2017-02-04T00:13:11.213Z,993.78
2017-02-04T00:13:37.356Z,993.76
2017-02-04T00:14:03.498Z,993.74
2017-02-04T00:14:29.652Z,993.72
2017-02-04T00:14:55.794Z,993.74
2017-02-04T00:15:22.016Z,993.74
2017-02-04T00:15:48.176Z,993.74
2017-02-04T00:16:14.344Z,993.7
2017-02-04T00:16:40.510Z,993.72
2017-02-04T00:17:06.809Z,993.68
2017-02-04T00:17:32.884Z,993.72
2017-02-04T00:17:59.092Z,993.71
2017-02-04T00:18:25.324Z,993.7
2017-02-04T00:18:51.568Z,993.73
2017-02-04T00:19:17.864Z,993.72
2017-02-04T00:19:44.090Z,993.7
2017-02-04T00:20:10.305Z,993.74
2017-02-04T00:20:36.425Z,993.72
2017-02-04T00:21:02.943Z,993.69
2017-02-04T00:21:29.210Z,993.73
2017-02-04T00:21:55.439Z,993.72
2017-02-04T00:22:21.555Z,993.72
2017-02-04T00:22:47.693Z,993.7
2017-02-04T00:23:13.830Z,993.72
2017-02-04T00:23:40.038Z,993.7
2017-02-04T00:24:06.412Z,993.72
2017-02-04T00:24:32.592Z,993.7
2017-02-04T00:24:58.753Z,993.7
2017-02-04T00:25:25.402Z,993.72
2017-02-04T00:25:51.504Z,993.71
2017-02-04T00:26:17.695Z,993.72
2017-02-04T00:26:43.801Z,993.67
2017-02-04T00:27:09.953Z,993.64
2017-02-04T00:27:36.121Z,993.64
2017-02-04T00:28:02.263Z,993.66
2017-02-04T00:28:28.438Z,993.62
2017-02-04T00:28:54.594Z,993.65
2017-02-04T00:29:20.773Z,993.64
2017-02-04T00:29:46.905Z,993.65
2017-02-04T00:30:13.073Z,993.61
2017-02-04T00:30:39.237Z,993.58
2017-02-04T00:31:05.480Z,993.63
2017-02-04T00:31:31.584Z,993.64
2017-02-04T00:31:57.908Z,993.61
2017-02-04T00:32:24.117Z,993.68
2017-02-04T00:32:50.338Z,993.62
2017-02-04T00:33:16.599Z,993.67
2017-02-04T00:33:42.700Z,993.68
2017-02-04T00:34:08.889Z,993.71
2017-02-04T00:34:35.067Z,993.66
2017-02-04T00:35:01.271Z,993.63
2017-02-04T00:35:27.388Z,993.69
2017-02-04T00:35:53.505Z,993.67
2017-02-04T00:36:19.614Z,993.61
2017-02-04T00:36:45.880Z,993.66
2017-02-04T00:37:12.083Z,993.72
2017-02-04T00:37:38.226Z,993.66
2017-02-04T00:38:04.436Z,993.66
2017-02-04T00:38:30.547Z,993.66
2017-02-04T00:38:56.688Z,993.65
2017-02-04T00:39:22.861Z,993.69
2017-02-04T00:39:49.057Z,993.68
2017-02-04T00:40:15.289Z,993.68
2017-02-04T00:40:41.435Z,993.66
2017-02-04T00:41:07.729Z,993.62
2017-02-04T00:41:33.890Z,993.61
2017-02-04T00:42:00.059Z,993.64
2017-02-04T00:42:26.258Z,993.63
2017-02-04T00:42:52.388Z,993.66
2017-02-04T00:43:18.583Z,993.59
2017-02-04T00:43:44.735Z,993.6
2017-02-04T00:44:10.914Z,993.58
2017-02-04T00:44:37.101Z,993.58
2017-02-04T00:45:03.227Z,993.58
2017-02-04T00:45:29.366Z,993.58
2017-02-04T00:45:55.485Z,993.6
2017-02-04T00:46:21.724Z,993.53
2017-02-04T00:46:47.879Z,993.56
2017-02-04T00:47:14.006Z,993.58
2017-02-04T00:47:40.146Z,993.59
2017-02-04T00:48:06.287Z,993.55
2017-02-04T00:48:32.443Z,993.61
2017-02-04T00:48:58.643Z,993.58
2017-02-04T00:49:24.785Z,993.58
2017-02-04T00:49:50.933Z,993.63
2017-02-04T00:50:17.120Z,993.58
2017-02-04T00:50:43.249Z,993.57
2017-02-04T00:51:09.400Z,993.56
2017-02-04T00:51:35.613Z,993.56
2017-02-04T00:52:01.810Z,993.55
2017-02-04T00:52:27.934Z,993.56
2017-02-04T00:52:54.156Z,993.52
2017-02-04T00:53:20.338Z,993.53
2017-02-04T00:53:46.435Z,993.51
2017-02-04T00:54:12.570Z,993.49
2017-02-04T00:54:38.708Z,993.43
2017-02-04T00:55:04.840Z,993.49
2017-02-04T00:55:30.982Z,993.45
2017-02-04T00:55:57.118Z,993.45
2017-02-04T00:56:23.265Z,993.45
2017-02-04T00:56:49.499Z,993.47
2017-02-04T00:57:15.647Z,993.4
2017-02-04T00:57:41.776Z,993.46
2017-02-04T00:58:07.885Z,993.45
2017-02-04T00:58:33.996Z,993.41
2017-02-04T00:59:00.122Z,993.38
2017-02-04T00:59:26.259Z,993.42
2017-02-04T00:59:52.434Z,993.42
2017-02-04T01:00:18.582Z,993.42
2017-02-04T01:00:44.756Z,993.35
2017-02-04T01:01:10.961Z,993.34
2017-02-04T01:01:37.104Z,993.37
2017-02-04T01:02:03.268Z,993.36
2017-02-04T01:02:29.412Z,993.32
2017-02-04T01:02:55.580Z,993.37
2017-02-04T01:03:21.730Z,993.35
2017-02-04T01:03:47.934Z,993.32
2017-02-04T01:04:14.111Z,993.33
2017-02-04T01:04:40.301Z,993.35
2017-02-04T01:05:06.469Z,993.36
2017-02-04T01:05:32.715Z,993.36
2017-02-04T01:05:58.893Z,993.4
2017-02-04T01:06:25.032Z,993.36
2017-02-04T01:06:51.200Z,993.33
2017-02-04T01:07:17.407Z,993.31
2017-02-04T01:07:43.579Z,993.34
2017-02-04T01:08:09.762Z,993.35
2017-02-04T01:08:35.896Z,993.33
2017-02-04T01:09:02.061Z,993.29
2017-02-04T01:09:28.235Z,993.34
2017-02-04T01:09:54.381Z,993.36
2017-02-04T01:10:20.572Z,993.39
2017-02-04T01:10:46.726Z,993.36
2017-02-04T01:11:12.864Z,993.36
2017-02-04T01:11:39.103Z,993.36
2017-02-04T01:12:05.326Z,993.36
2017-02-04T01:12:31.436Z,993.35
2017-02-04T01:12:57.620Z,993.35
2017-02-04T01:13:23.745Z,993.39
2017-02-04T01:13:49.901Z,993.4
2017-02-04T01:14:16.093Z,993.36
2017-02-04T01:14:42.233Z,993.37
2017-02-04T01:15:08.402Z,993.35
2017-02-04T01:15:34.669Z,993.37
2017-02-04T01:16:00.839Z,993.35
2017-02-04T01:16:27.084Z,993.36
2017-02-04T01:16:53.207Z,993.36
2017-02-04T01:17:19.337Z,993.34
2017-02-04T01:17:45.541Z,993.35
2017-02-04T01:18:11.735Z,993.38
2017-02-04T01:18:37.907Z,993.38
2017-02-04T01:19:04.060Z,993.39
2017-02-04T01:19:30.222Z,993.38
2017-02-04T01:19:56.387Z,993.34
2017-02-04T01:20:22.529Z,993.37
2017-02-04T01:20:48.642Z,993.4
2017-02-04T01:21:14.825Z,993.35
2017-02-04T01:21:40.962Z,993.41
2017-02-04T01:22:07.162Z,993.35
2017-02-04T01:22:33.326Z,993.38
2017-02-04T01:22:59.496Z,993.37
2017-02-04T01:23:25.707Z,993.39
2017-02-04T01:23:51.845Z,993.44
2017-02-04T01:24:17.983Z,993.42
2017-02-04T01:24:44.142Z,993.42
2017-02-04T01:25:10.323Z,993.43
2017-02-04T01:25:36.494Z,993.4
2017-02-04T01:26:02.635Z,993.4
2017-02-04T01:26:28.837Z,993.4
2017-02-04T01:26:54.988Z,993.45
2017-02-04T01:27:21.168Z,993.43
2017-02-04T01:27:47.296Z,993.38
2017-02-04T01:28:13.488Z,993.44
2017-02-04T01:28:39.629Z,993.4
2017-02-04T01:29:05.818Z,993.34
2017-02-04T01:29:32.007Z,993.43
2017-02-04T01:29:58.101Z,993.4
2017-02-04T01:30:24.191Z,993.41
2017-02-04T01:30:50.336Z,993.46
2017-02-04T01:31:16.526Z,993.47
2017-02-04T01:31:42.717Z,993.45
2017-02-04T01:32:08.911Z,993.4
2017-02-04T01:32:35.094Z,993.44
2017-02-04T01:33:01.258Z,993.41
2017-02-04T01:33:27.396Z,993.39
2017-02-04T01:33:53.552Z,993.46
2017-02-04T01:34:19.717Z,993.43
2017-02-04T01:34:45.863Z,993.45
2017-02-04T01:35:12.010Z,993.45
2017-02-04T01:35:38.210Z,993.42
2017-02-04T01:36:04.326Z,993.46
2017-02-04T01:36:30.472Z,993.43
2017-02-04T01:36:56.678Z,993.45
2017-02-04T01:37:22.827Z,993.5
2017-02-04T01:37:48.997Z,993.42
2017-02-04T01:38:15.129Z,993.43
2017-02-04T01:38:41.257Z,993.47
2017-02-04T01:39:07.402Z,993.45
2017-02-04T01:39:33.642Z,993.47
2017-02-04T01:40:00.128Z,993.47
2017-02-04T01:40:26.249Z,993.5
2017-02-04T01:40:52.455Z,993.47
2017-02-04T01:41:18.582Z,993.53
2017-02-04T01:41:44.723Z,993.51
2017-02-04T01:42:10.858Z,993.49
2017-02-04T01:42:36.996Z,993.48
2017-02-04T01:43:03.176Z,993.48
2017-02-04T01:43:29.339Z,993.5
2017-02-04T01:43:55.454Z,993.54
2017-02-04T01:44:21.609Z,993.51
2017-02-04T01:44:47.712Z,993.51
2017-02-04T01:45:13.876Z,993.57
2017-02-04T01:45:40.042Z,993.51
2017-02-04T01:46:06.242Z,993.53
2017-02-04T01:46:32.334Z,993.54
2017-02-04T01:46:58.484Z,993.57
2017-02-04T01:47:24.646Z,993.51
2017-02-04T01:47:50.845Z,993.54
2017-02-04T01:48:16.983Z,993.53
2017-02-04T01:48:43.119Z,993.53
2017-02-04T01:49:09.240Z,993.52
2017-02-04T01:49:35.373Z,993.5
2017-02-04T01:50:01.501Z,993.49
2017-02-04T01:50:27.675Z,993.54
2017-02-04T01:50:53.846Z,993.49
2017-02-04T01:51:20.001Z,993.5
2017-02-04T01:51:46.164Z,993.5
2017-02-04T01:52:12.268Z,993.5
2017-02-04T01:52:38.428Z,993.53
2017-02-04T01:53:04.644Z,993.48
2017-02-04T01:53:30.763Z,993.47
2017-02-04T01:53:56.920Z,993.47
2017-02-04T01:54:23.032Z,993.48
2017-02-04T01:54:49.215Z,993.49
2017-02-04T01:55:15.361Z,993.44
2017-02-04T01:55:41.525Z,993.42
2017-02-04T01:56:07.654Z,993.41
2017-02-04T01:56:33.775Z,993.43
2017-02-04T01:56:59.915Z,993.43
2017-02-04T01:57:26.027Z,993.39
2017-02-04T01:57:52.200Z,993.42
2017-02-04T01:58:18.347Z,993.43
2017-02-04T01:58:44.525Z,993.45
2017-02-04T01:59:10.666Z,993.39
2017-02-04T01:59:36.876Z,993.42
2017-02-04T02:00:03.048Z,993.43
2017-02-04T02:00:29.236Z,993.45
2017-02-04T02:00:55.409Z,993.46
2017-02-04T02:01:21.520Z,993.46
2017-02-04T02:01:47.623Z,993.46
2017-02-04T02:02:13.782Z,993.5
2017-02-04T02:02:39.904Z,993.46
2017-02-04T02:03:06.073Z,993.45
2017-02-04T02:03:32.299Z,993.46
2017-02-04T02:03:58.420Z,993.44
2017-02-04T02:04:24.558Z,993.49
2017-02-04T02:04:50.705Z,993.47
2017-02-04T02:05:16.864Z,993.48
2017-02-04T02:05:43.055Z,993.49
2017-02-04T02:06:09.150Z,993.52
2017-02-04T02:06:35.299Z,993.48
2017-02-04T02:07:01.496Z,993.54
2017-02-04T02:07:27.674Z,993.52
2017-02-04T02:07:53.847Z,993.47
2017-02-04T02:08:19.955Z,993.49
2017-02-04T02:08:46.206Z,993.47
2017-02-04T02:09:12.397Z,993.52
2017-02-04T02:09:38.555Z,993.53
2017-02-04T02:10:04.757Z,993.48
2017-02-04T02:10:30.863Z,993.48
2017-02-04T02:10:56.996Z,993.49
2017-02-04T02:11:23.135Z,993.48
2017-02-04T02:11:49.305Z,993.49
2017-02-04T02:12:15.402Z,993.48
2017-02-04T02:12:41.550Z,993.46
2017-02-04T02:13:07.695Z,993.46
2017-02-04T02:13:33.851Z,993.56
2017-02-04T02:13:59.997Z,993.46
2017-02-04T02:14:26.099Z,993.48
2017-02-04T02:14:52.266Z,993.48
2017-02-04T02:15:18.452Z,993.46
2017-02-04T02:15:44.635Z,993.45
2017-02-04T02:16:10.801Z,993.47
2017-02-04T02:16:36.966Z,993.45
2017-02-04T02:17:03.093Z,993.47
2017-02-04T02:17:29.237Z,993.49
2017-02-04T02:17:55.410Z,993.49
2017-02-04T02:18:21.604Z,993.44
2017-02-04T02:18:47.724Z,993.44
2017-02-04T02:19:13.872Z,993.46
2017-02-04T02:19:40.042Z,993.39
2017-02-04T02:20:06.158Z,993.42
2017-02-04T02:20:32.356Z,993.42
2017-02-04T02:20:58.492Z,993.43
2017-02-04T02:21:24.663Z,993.39
2017-02-04T02:21:50.826Z,993.43
2017-02-04T02:22:16.970Z,993.43
2017-02-04T02:22:43.185Z,993.43
2017-02-04T02:23:09.295Z,993.44
2017-02-04T02:23:35.481Z,993.41
2017-02-04T02:24:01.640Z,993.4
2017-02-04T02:24:27.785Z,993.48
2017-02-04T02:24:53.998Z,993.4
2017-02-04T02:25:20.198Z,993.42
2017-02-04T02:25:46.385Z,993.49
2017-02-04T02:26:12.514Z,993.46
2017-02-04T02:26:38.614Z,993.45
2017-02-04T02:27:04.745Z,993.45
2017-02-04T02:27:30.904Z,993.41
2017-02-04T02:27:57.043Z,993.41
2017-02-04T02:28:23.170Z,993.49
2017-02-04T02:28:49.308Z,993.47
2017-02-04T02:29:15.449Z,993.48
2017-02-04T02:29:41.603Z,993.5
2017-02-04T02:30:07.731Z,993.44
2017-02-04T02:30:33.903Z,993.51
2017-02-04T02:31:00.119Z,993.51
2017-02-04T02:31:26.288Z,993.57
2017-02-04T02:31:52.477Z,993.5
2017-02-04T02:32:18.629Z,993.53
2017-02-04T02:32:44.794Z,993.58
2017-02-04T02:33:10.971Z,993.49
2017-02-04T02:33:37.144Z,993.56
2017-02-04T02:34:03.358Z,993.56
2017-02-04T02:34:29.560Z,993.51
2017-02-04T02:34:55.687Z,993.55
2017-02-04T02:35:21.896Z,993.64
2017-02-04T02:35:48.041Z,993.53
2017-02-04T02:36:14.281Z,993.48
2017-02-04T02:36:40.465Z,993.53
2017-02-04T02:37:06.604Z,993.52
2017-02-04T02:37:32.806Z,993.58
2017-02-04T02:37:58.947Z,993.53
2017-02-04T02:38:25.117Z,993.55
2017-02-04T02:38:51.207Z,993.52
2017-02-04T02:39:17.326Z,993.53
2017-02-04T02:39:43.582Z,993.52
2017-02-04T02:40:09.730Z,993.52
2017-02-04T02:40:35.844Z,993.51
2017-02-04T02:41:01.977Z,993.6
2017-02-04T02:41:28.165Z,993.48
2017-02-04T02:41:54.305Z,993.55
2017-02-04T02:42:20.468Z,993.56
2017-02-04T02:42:46.665Z,993.54
2017-02-04T02:43:12.805Z,993.54
2017-02-04T02:43:38.964Z,993.5
2017-02-04T02:44:05.125Z,993.5
2017-02-04T02:44:31.289Z,993.51
2017-02-04T02:44:57.471Z,993.51
2017-02-04T02:45:23.614Z,993.57
2017-02-04T02:45:49.774Z,993.56
2017-02-04T02:46:15.939Z,993.59
2017-02-04T02:46:42.024Z,993.57
2017-02-04T02:47:08.166Z,993.62
2017-02-04T02:47:34.364Z,993.65
2017-02-04T02:48:00.481Z,993.65
2017-02-04T02:48:26.602Z,993.61
2017-02-04T02:48:52.753Z,993.59
2017-02-04T02:49:18.904Z,993.59
2017-02-04T02:49:45.102Z,993.61
2017-02-04T02:50:11.243Z,993.63
2017-02-04T02:50:37.450Z,993.6
2017-02-04T02:51:03.611Z,993.62
2017-02-04T02:51:29.775Z,993.62
2017-02-04T02:51:55.921Z,993.66
2017-02-04T02:52:22.118Z,993.66
2017-02-04T02:52:48.286Z,993.66
2017-02-04T02:53:14.421Z,993.67
2017-02-04T02:53:40.580Z,993.62
2017-02-04T02:54:06.733Z,993.66
2017-02-04T02:54:32.871Z,993.71
2017-02-04T02:54:59.041Z,993.73
2017-02-04T02:55:25.207Z,993.69
2017-02-04T02:55:51.401Z,993.74
2017-02-04T02:56:17.550Z,993.71
2017-02-04T02:56:43.678Z,993.74
2017-02-04T02:57:09.813Z,993.73
2017-02-04T02:57:36.013Z,993.68
2017-02-04T02:58:02.152Z,993.68
2017-02-04T02:58:28.369Z,993.72
2017-02-04T02:58:54.521Z,993.69
2017-02-04T02:59:20.666Z,993.73
2017-02-04T02:59:46.772Z,993.72
2017-02-04T03:00:12.889Z,993.7
2017-02-04T03:00:39.065Z,993.69
2017-02-04T03:01:05.188Z,993.68
2017-02-04T03:01:31.414Z,993.68
2017-02-04T03:01:57.567Z,993.73
2017-02-04T03:02:23.669Z,993.75
2017-02-04T03:02:49.815Z,993.7
2017-02-04T03:03:15.954Z,993.72
2017-02-04T03:03:42.150Z,993.75
2017-02-04T03:04:08.282Z,993.73
2017-02-04T03:04:34.414Z,993.72
2017-02-04T03:05:00.519Z,993.72
2017-02-04T03:05:26.724Z,993.72
2017-02-04T03:05:52.888Z,993.7
2017-02-04T03:06:19.031Z,993.68
2017-02-04T03:06:45.179Z,993.73
2017-02-04T03:07:11.326Z,993.74
2017-02-04T03:07:37.489Z,993.76
2017-02-04T03:08:03.633Z,993.71
2017-02-04T03:08:29.781Z,993.74
2017-02-04T03:08:55.919Z,993.72
2017-02-04T03:09:22.082Z,993.79
2017-02-04T03:09:48.219Z,993.74
2017-02-04T03:10:14.354Z,993.78
2017-02-04T03:10:40.511Z,993.77
2017-02-04T03:11:06.656Z,993.75
2017-02-04T03:11:32.756Z,993.93
2017-02-04T03:11:58.915Z,993.8
2017-02-04T03:12:25.071Z,993.88
2017-02-04T03:12:51.169Z,993.83
2017-02-04T03:13:17.341Z,993.84
2017-02-04T03:13:43.525Z,993.8
2017-02-04T03:14:09.712Z,993.85
2017-02-04T03:14:35.850Z,993.82
2017-02-04T03:15:02.014Z,993.8
2017-02-04T03:15:28.242Z,993.83
2017-02-04T03:15:54.384Z,993.9
2017-02-04T03:16:20.554Z,993.88
2017-02-04T03:16:46.667Z,993.9
2017-02-04T03:17:12.775Z,993.88
2017-02-04T03:17:39.031Z,993.9
2017-02-04T03:18:05.117Z,993.9
2017-02-04T03:18:31.318Z,993.89
2017-02-04T03:18:57.478Z,993.86
2017-02-04T03:19:23.651Z,993.92
2017-02-04T03:19:49.804Z,993.92
2017-02-04T03:20:15.912Z,993.9
2017-02-04T03:20:42.087Z,993.92
2017-02-04T03:21:08.253Z,993.93
2017-02-04T03:21:34.453Z,993.86
2017-02-04T03:22:00.613Z,993.93
2017-02-04T03:22:26.778Z,993.86
2017-02-04T03:22:52.966Z,993.91
2017-02-04T03:23:19.089Z,993.93
2017-02-04T03:23:45.282Z,993.93
2017-02-04T03:24:11.462Z,993.92
2017-02-04T03:24:37.558Z,993.93
2017-02-04T03:25:03.738Z,993.88
2017-02-04T03:25:29.918Z,993.9
2017-02-04T03:25:56.033Z,993.87
2017-02-04T03:26:22.256Z,993.9
2017-02-04T03:26:48.382Z,993.96
2017-02-04T03:27:14.504Z,993.91
2017-02-04T03:27:40.631Z,993.9
2017-02-04T03:28:06.777Z,993.94
2017-02-04T03:28:32.887Z,993.95
2017-02-04T03:28:59.005Z,993.75
2017-02-04T03:29:25.143Z,993.94
2017-02-04T03:29:51.335Z,993.91
2017-02-04T03:30:17.498Z,993.9
2017-02-04T03:30:43.608Z,993.99
2017-02-04T03:31:09.741Z,993.91
2017-02-04T03:31:35.938Z,993.92
2017-02-04T03:32:02.099Z,993.91
2017-02-04T03:32:28.247Z,993.88
2017-02-04T03:32:54.451Z,993.96
2017-02-04T03:33:20.619Z,994
2017-02-04T03:33:46.749Z,993.96
2017-02-04T03:34:12.918Z,993.93
2017-02-04T03:34:39.077Z,993.91
2017-02-04T03:35:05.266Z,993.96
2017-02-04T03:35:31.383Z,993.92
2017-02-04T03:35:57.564Z,993.98
2017-02-04T03:36:23.697Z,993.97
2017-02-04T03:36:49.868Z,993.88
2017-02-04T03:37:16.019Z,993.96
2017-02-04T03:37:42.153Z,993.9
2017-02-04T03:38:08.331Z,993.97
2017-02-04T03:38:34.441Z,993.89
2017-02-04T03:39:00.608Z,993.92
2017-02-04T03:39:26.735Z,993.9
2017-02-04T03:39:52.871Z,993.94
2017-02-04T03:40:19.016Z,993.91
2017-02-04T03:40:45.195Z,993.96
2017-02-04T03:41:11.383Z,994.04
2017-02-04T03:41:37.533Z,993.96
2017-02-04T03:42:03.675Z,994
2017-02-04T03:42:29.837Z,993.96
2017-02-04T03:42:55.936Z,993.97
2017-02-04T03:43:22.126Z,994
2017-02-04T03:43:48.270Z,994
2017-02-04T03:44:14.462Z,994
2017-02-04T03:44:40.615Z,994
2017-02-04T03:45:06.765Z,993.99
2017-02-04T03:45:32.884Z,994.01
2017-02-04T03:45:59.048Z,993.99
2017-02-04T03:46:25.231Z,993.97
2017-02-04T03:46:51.399Z,994.05
2017-02-04T03:47:17.594Z,994.01
2017-02-04T03:47:43.802Z,994.05
2017-02-04T03:48:09.951Z,994.04
2017-02-04T03:48:36.104Z,994.03
2017-02-04T03:49:02.242Z,994.02
2017-02-04T03:49:28.415Z,994.04
2017-02-04T03:49:54.564Z,994.05
2017-02-04T03:50:20.683Z,994.03
2017-02-04T03:50:46.823Z,994.06
2017-02-04T03:51:12.954Z,994.01
2017-02-04T03:51:39.095Z,994.07
2017-02-04T03:52:05.231Z,994.05
2017-02-04T03:52:31.396Z,994.07
2017-02-04T03:52:57.588Z,994.03
2017-02-04T03:53:23.712Z,994.03
2017-02-04T03:53:49.940Z,994.08
2017-02-04T03:54:16.087Z,994.02
2017-02-04T03:54:42.265Z,994.01
2017-02-04T03:55:08.391Z,994
2017-02-04T03:55:34.489Z,994.02
2017-02-04T03:56:00.677Z,994.03
2017-02-04T03:56:26.861Z,994.07
2017-02-04T03:56:53.048Z,994
2017-02-04T03:57:19.241Z,994.04
2017-02-04T03:57:45.404Z,994.09
2017-02-04T03:58:11.521Z,994.08
2017-02-04T03:58:37.687Z,994.07
2017-02-04T03:59:03.885Z,994.08
2017-02-04T03:59:30.021Z,994.12
2017-02-04T03:59:56.195Z,994.17
2017-02-04T04:00:22.347Z,994.14
2017-02-04T04:00:48.469Z,994.19
2017-02-04T04:01:14.597Z,994.19
2017-02-04T04:01:40.764Z,994.23
2017-02-04T04:02:06.931Z,994.16
2017-02-04T04:02:33.023Z,994.26
2017-02-04T04:02:59.185Z,994.23
2017-02-04T04:03:25.373Z,994.22
2017-02-04T04:03:51.522Z,994.08
2017-02-04T04:04:17.712Z,994.23
2017-02-04T04:04:43.884Z,994.22
2017-02-04T04:05:10.106Z,994.24
2017-02-04T04:05:36.287Z,994.21
2017-02-04T04:06:02.531Z,994.31
2017-02-04T04:06:28.721Z,994.19
2017-02-04T04:06:54.898Z,994.24
2017-02-04T04:07:21.083Z,994.23
2017-02-04T04:07:47.231Z,994.25
2017-02-04T04:08:13.429Z,994.22
2017-02-04T04:08:39.533Z,994.25
2017-02-04T04:09:05.725Z,994.18
2017-02-04T04:09:31.883Z,994.22
2017-02-04T04:09:57.995Z,994.25
2017-02-04T04:10:24.107Z,994.24
2017-02-04T04:10:50.259Z,994.29
2017-02-04T04:11:16.454Z,994.3
2017-02-04T04:11:42.573Z,994.28
2017-02-04T04:12:08.672Z,994.27
2017-02-04T04:12:34.791Z,994.34
2017-02-04T04:13:00.976Z,994.3
2017-02-04T04:13:27.175Z,994.29
2017-02-04T04:13:53.312Z,994.34
2017-02-04T04:14:19.488Z,994.32
2017-02-04T04:14:45.650Z,994.28
2017-02-04T04:15:11.772Z,994.26
2017-02-04T04:15:37.888Z,994.27
2017-02-04T04:16:04.051Z,994.28
2017-02-04T04:16:30.189Z,994.26
2017-02-04T04:16:56.336Z,994.28
2017-02-04T04:17:22.533Z,994.2
2017-02-04T04:17:48.737Z,994.24
2017-02-04T04:18:14.866Z,994.32
2017-02-04T04:18:41.035Z,994.28
2017-02-04T04:19:07.181Z,994.29
2017-02-04T04:19:33.346Z,994.21
2017-02-04T04:19:59.443Z,994.38
2017-02-04T04:20:25.669Z,994.31
2017-02-04T04:20:51.801Z,994.26
2017-02-04T04:21:17.955Z,994.26
2017-02-04T04:21:44.066Z,994.31
2017-02-04T04:22:10.255Z,994.31
2017-02-04T04:22:36.414Z,994.32
2017-02-04T04:23:02.583Z,994.32
2017-02-04T04:23:28.690Z,994.31
2017-02-04T04:23:54.881Z,994.33
2017-02-04T04:24:21.112Z,994.31
2017-02-04T04:24:47.269Z,994.35
2017-02-04T04:25:13.359Z,994.33
2017-02-04T04:25:39.522Z,994.39
2017-02-04T04:26:05.647Z,994.35
2017-02-04T04:26:31.790Z,994.3
2017-02-04T04:26:57.943Z,994.29
2017-02-04T04:27:24.081Z,994.3
2017-02-04T04:27:50.243Z,994.28
2017-02-04T04:28:16.436Z,994.32
2017-02-04T04:28:42.603Z,994.35
2017-02-04T04:29:08.743Z,994.34
2017-02-04T04:29:34.965Z,994.34
2017-02-04T04:30:01.124Z,994.36
2017-02-04T04:30:27.276Z,994.36
2017-02-04T04:30:53.381Z,994.39
2017-02-04T04:31:19.523Z,994.37
2017-02-04T04:31:45.630Z,994.41
2017-02-04T04:32:11.762Z,994.44
2017-02-04T04:32:37.880Z,994.33
2017-02-04T04:33:04.000Z,994.31
2017-02-04T04:33:30.170Z,994.33
2017-02-04T04:33:56.314Z,994.42
2017-02-04T04:34:22.494Z,994.41
2017-02-04T04:34:48.632Z,994.41
2017-02-04T04:35:14.786Z,994.44
2017-02-04T04:35:40.922Z,994.46
2017-02-04T04:36:07.150Z,994.45
2017-02-04T04:36:33.360Z,994.45
2017-02-04T04:36:59.509Z,994.44
2017-02-04T04:37:25.635Z,994.47
2017-02-04T04:37:51.803Z,994.42
2017-02-04T04:38:17.942Z,994.48
2017-02-04T04:38:44.072Z,994.48
2017-02-04T04:39:10.257Z,994.52
2017-02-04T04:39:36.401Z,994.52
2017-02-04T04:40:02.530Z,994.58
2017-02-04T04:40:28.623Z,994.59
2017-02-04T04:40:54.727Z,994.56
2017-02-04T04:41:20.839Z,994.57
2017-02-04T04:41:46.949Z,994.63
2017-02-04T04:42:13.047Z,994.57
2017-02-04T04:42:39.260Z,994.56
2017-02-04T04:43:05.407Z,994.55
2017-02-04T04:43:31.551Z,994.64
2017-02-04T04:43:57.683Z,994.58
2017-02-04T04:44:23.804Z,994.6
2017-02-04T04:44:49.967Z,994.62
2017-02-04T04:45:16.098Z,994.6
2017-02-04T04:45:42.275Z,994.64
2017-02-04T04:46:08.411Z,994.48
2017-02-04T04:46:34.499Z,994.62
2017-02-04T04:47:00.666Z,994.53
2017-02-04T04:47:26.861Z,994.63
2017-02-04T04:47:52.976Z,994.61
2017-02-04T04:48:19.148Z,994.62
2017-02-04T04:48:45.313Z,994.65
2017-02-04T04:49:11.459Z,994.68
2017-02-04T04:49:37.619Z,994.67
2017-02-04T04:50:03.721Z,994.68
2017-02-04T04:50:29.819Z,994.72
2017-02-04T04:50:55.913Z,994.73
2017-02-04T04:51:22.074Z,994.66
2017-02-04T04:51:48.186Z,994.72
2017-02-04T04:52:14.378Z,994.71
2017-02-04T04:52:40.509Z,994.72
2017-02-04T04:53:06.627Z,994.73
2017-02-04T04:53:32.758Z,994.69
2017-02-04T04:53:58.907Z,994.75
2017-02-04T04:54:25.031Z,994.74
2017-02-04T04:54:51.194Z,994.77
2017-02-04T04:55:17.365Z,994.74
2017-02-04T04:55:43.528Z,994.77
2017-02-04T04:56:09.719Z,994.76
2017-02-04T04:56:35.881Z,994.79
2017-02-04T04:57:02.052Z,994.8
2017-02-04T04:57:28.232Z,994.84
2017-02-04T04:57:54.350Z,994.83
2017-02-04T04:58:20.504Z,994.83
2017-02-04T04:58:46.691Z,994.85
2017-02-04T04:59:12.807Z,994.83
2017-02-04T04:59:38.969Z,994.82
2017-02-04T05:00:05.186Z,994.84
2017-02-04T05:00:31.310Z,994.82
2017-02-04T05:00:57.432Z,994.81
2017-02-04T05:01:23.627Z,994.82
2017-02-04T05:01:49.775Z,994.79
2017-02-04T05:02:15.898Z,994.81
2017-02-04T05:02:42.086Z,994.86
2017-02-04T05:03:08.191Z,994.84
2017-02-04T05:03:34.380Z,994.82
2017-02-04T05:04:00.522Z,994.85
2017-02-04T05:04:26.696Z,994.84
2017-02-04T05:04:52.800Z,994.88
2017-02-04T05:05:18.967Z,994.84
2017-02-04T05:05:45.088Z,994.85
2017-02-04T05:06:11.250Z,994.88
2017-02-04T05:06:37.376Z,994.86
2017-02-04T05:07:03.492Z,994.89
2017-02-04T05:07:29.602Z,994.86
2017-02-04T05:07:55.792Z,994.86
2017-02-04T05:08:21.989Z,994.82
2017-02-04T05:08:48.113Z,994.81
2017-02-04T05:09:14.283Z,994.8
2017-02-04T05:09:40.474Z,994.84
2017-02-04T05:10:06.623Z,994.82
2017-02-04T05:10:32.740Z,994.81
2017-02-04T05:10:58.957Z,994.83
2017-02-04T05:11:25.109Z,994.81
2017-02-04T05:11:51.257Z,994.83
2017-02-04T05:12:17.408Z,994.84
2017-02-04T05:12:43.601Z,994.84
2017-02-04T05:13:09.734Z,994.86
2017-02-04T05:13:35.878Z,994.85
2017-02-04T05:14:02.089Z,994.84
2017-02-04T05:14:28.285Z,994.91
2017-02-04T05:14:54.448Z,994.85
2017-02-04T05:15:20.568Z,994.87
2017-02-04T05:15:46.730Z,994.91
2017-02-04T05:16:12.866Z,994.87
2017-02-04T05:16:39.053Z,994.88
2017-02-04T05:17:05.160Z,994.92
2017-02-04T05:17:31.314Z,994.91
2017-02-04T05:17:57.456Z,994.89
2017-02-04T05:18:23.596Z,994.91
2017-02-04T05:18:49.791Z,994.94
2017-02-04T05:19:15.942Z,994.95
2017-02-04T05:19:42.080Z,994.94
2017-02-04T05:20:08.249Z,995.02
2017-02-04T05:20:34.376Z,994.96
2017-02-04T05:21:00.482Z,994.97
2017-02-04T05:21:26.651Z,994.95
2017-02-04T05:21:52.771Z,994.94
2017-02-04T05:22:18.945Z,994.9
2017-02-04T05:22:45.094Z,994.97
2017-02-04T05:23:11.280Z,994.96
2017-02-04T05:23:37.420Z,995.02
2017-02-04T05:24:03.525Z,994.99
2017-02-04T05:24:29.720Z,994.97
2017-02-04T05:24:55.832Z,994.98
2017-02-04T05:25:21.965Z,994.96
2017-02-04T05:25:48.055Z,995
2017-02-04T05:26:14.207Z,995.06
2017-02-04T05:26:40.371Z,994.99
2017-02-04T05:27:06.499Z,995
2017-02-04T05:27:32.672Z,995